createdAt,value
2023-01-25T00:00:40.920Z,20.38
2023-01-25T00:03:08.627Z,20.37
2023-01-25T00:05:36.421Z,20.37
2023-01-25T00:08:05.700Z,20.37
2023-01-25T00:10:33.426Z,20.35
2023-01-25T00:13:01.078Z,20.37
2023-01-25T00:15:28.772Z,20.36
2023-01-25T00:17:56.441Z,20.36
2023-01-25T00:20:24.180Z,20.36
2023-01-25T00:22:51.842Z,20.35
2023-01-25T00:25:20.943Z,20.35
2023-01-25T00:27:48.701Z,20.37
2023-01-25T00:30:16.746Z,20.37
2023-01-25T00:32:55.092Z,20.39
2023-01-25T00:35:22.803Z,20.39
2023-01-25T00:37:50.970Z,20.39
2023-01-25T00:40:20.144Z,20.39
2023-01-25T00:42:47.833Z,20.39
2023-01-25T00:45:15.548Z,20.40
2023-01-25T00:47:43.509Z,20.39
2023-01-25T00:50:11.862Z,20.38
2023-01-25T00:52:39.570Z,20.38
2023-01-25T00:55:08.062Z,20.36
2023-01-25T00:57:37.388Z,20.36
2023-01-25T01:00:06.100Z,20.35
2023-01-25T01:02:33.818Z,20.35
2023-01-25T01:05:01.580Z,20.34
2023-01-25T01:07:29.527Z,20.35
2023-01-25T01:09:57.361Z,20.34
2023-01-25T01:12:25.187Z,20.34
2023-01-25T01:14:54.241Z,20.33
2023-01-25T01:17:21.978Z,20.33
2023-01-25T01:19:49.637Z,20.33
2023-01-25T01:22:17.292Z,20.32
2023-01-25T01:24:44.896Z,20.32
2023-01-25T01:27:12.643Z,20.31
2023-01-25T01:29:40.316Z,20.31
2023-01-25T01:32:09.475Z,20.31
2023-01-25T01:34:37.255Z,20.31
2023-01-25T01:37:04.967Z,20.33
2023-01-25T01:39:32.883Z,20.33
2023-01-25T01:42:00.550Z,20.34
2023-01-25T01:44:45.259Z,20.34
2023-01-25T01:47:15.140Z,20.36
2023-01-25T01:49:42.858Z,20.35
2023-01-25T01:52:11.090Z,20.36
2023-01-25T01:54:39.629Z,20.35
2023-01-25T01:57:08.091Z,20.34
2023-01-25T01:59:36.896Z,20.32
2023-01-25T02:02:04.681Z,20.33
2023-01-25T02:04:33.761Z,20.32
2023-01-25T02:07:03.151Z,20.32
2023-01-25T02:09:30.871Z,20.32
2023-01-25T02:11:58.600Z,20.29
2023-01-25T02:14:26.641Z,20.32
2023-01-25T02:16:54.375Z,20.32
2023-01-25T02:19:25.811Z,20.31
2023-01-25T02:21:54.824Z,20.31
2023-01-25T02:24:23.974Z,20.30
2023-01-25T02:26:53.090Z,20.30
2023-01-25T02:29:23.163Z,20.30
2023-01-25T02:31:52.678Z,20.30
2023-01-25T02:34:20.532Z,20.30
2023-01-25T02:36:48.152Z,20.29
2023-01-25T02:39:20.246Z,20.31
2023-01-25T02:41:48.659Z,20.30
2023-01-25T02:44:18.139Z,20.31
2023-01-25T02:46:46.618Z,20.31
2023-01-25T02:49:14.834Z,20.31
2023-01-25T02:51:43.059Z,20.32
2023-01-25T02:54:11.127Z,20.35
2023-01-25T02:56:40.799Z,20.34
2023-01-25T02:59:08.618Z,20.34
2023-01-25T03:01:38.758Z,20.33
2023-01-25T03:04:06.728Z,20.33
2023-01-25T03:06:34.531Z,20.32
2023-01-25T03:09:02.340Z,20.32
2023-01-25T03:11:30.046Z,20.32
2023-01-25T03:13:57.723Z,20.31
2023-01-25T03:16:25.429Z,20.32
2023-01-25T03:18:55.648Z,20.30
2023-01-25T03:21:23.549Z,20.30
2023-01-25T03:23:55.644Z,20.29
2023-01-25T03:26:23.632Z,20.30
2023-01-25T03:28:51.413Z,20.29
2023-01-25T03:31:19.614Z,20.29
2023-01-25T03:33:47.611Z,20.29
2023-01-25T03:36:16.726Z,20.29
2023-01-25T03:38:44.709Z,20.30
2023-01-25T03:41:14.974Z,20.30
2023-01-25T03:43:42.671Z,20.30
2023-01-25T03:46:10.435Z,20.29
2023-01-25T03:48:38.179Z,20.29
2023-01-25T03:51:05.967Z,20.30
2023-01-25T03:53:35.020Z,20.32
2023-01-25T03:56:03.002Z,20.31
2023-01-25T03:58:30.907Z,20.33
2023-01-25T04:00:59.030Z,20.33
2023-01-25T04:03:27.015Z,20.33
2023-01-25T04:05:54.928Z,20.33
2023-01-25T04:08:22.583Z,20.33
2023-01-25T04:10:54.786Z,20.31
2023-01-25T04:13:22.567Z,20.32
2023-01-25T04:15:50.448Z,20.31
2023-01-25T04:18:18.100Z,20.31
2023-01-25T04:20:45.852Z,20.32
2023-01-25T04:23:13.631Z,20.30
2023-01-25T04:25:41.280Z,20.31
2023-01-25T04:28:10.306Z,20.31
2023-01-25T04:30:38.012Z,20.30
2023-01-25T04:33:06.858Z,20.30
2023-01-25T04:35:34.512Z,20.30
2023-01-25T04:38:02.220Z,20.30
2023-01-25T04:40:29.980Z,20.30
2023-01-25T04:42:57.869Z,20.29
2023-01-25T04:45:26.903Z,20.29
2023-01-25T04:47:56.709Z,20.28
2023-01-25T04:50:24.464Z,20.29
2023-01-25T04:52:52.198Z,20.29
2023-01-25T04:55:19.935Z,20.29
2023-01-25T04:57:49.816Z,20.30
2023-01-25T05:00:17.900Z,20.31
2023-01-25T05:02:47.209Z,20.32
2023-01-25T05:05:14.975Z,20.32
2023-01-25T05:07:42.764Z,20.33
2023-01-25T05:10:11.109Z,20.32
2023-01-25T05:12:38.850Z,20.32
2023-01-25T05:15:07.453Z,20.32
2023-01-25T05:17:35.411Z,20.31
2023-01-25T05:20:04.597Z,20.30
2023-01-25T05:22:32.320Z,20.30
2023-01-25T05:25:01.961Z,20.30
2023-01-25T05:27:28.618Z,20.30
2023-01-25T05:29:56.441Z,20.29
2023-01-25T05:32:24.205Z,20.30
2023-01-25T05:34:52.000Z,20.28
2023-01-25T05:37:21.352Z,20.29
2023-01-25T05:39:49.011Z,20.29
2023-01-25T05:42:17.118Z,20.29
2023-01-25T05:44:47.318Z,20.29
2023-01-25T05:47:17.785Z,20.29
2023-01-25T05:49:45.558Z,20.29
2023-01-25T05:52:13.860Z,20.28
2023-01-25T05:54:43.120Z,20.28
2023-01-25T05:57:10.825Z,20.28
2023-01-25T05:59:38.539Z,20.29
2023-01-25T06:02:06.279Z,20.28
2023-01-25T06:04:34.003Z,20.30
2023-01-25T06:07:01.741Z,20.31
2023-01-25T06:09:29.480Z,20.33
2023-01-25T06:11:58.537Z,20.34
2023-01-25T06:14:26.337Z,20.35
2023-01-25T06:16:54.143Z,20.35
2023-01-25T06:19:21.817Z,20.37
2023-01-25T06:21:49.499Z,20.37
2023-01-25T06:24:17.235Z,20.36
2023-01-25T06:26:45.119Z,20.38
2023-01-25T06:29:14.330Z,20.37
2023-01-25T06:31:42.137Z,20.36
2023-01-25T06:34:09.950Z,20.38
2023-01-25T06:36:37.722Z,20.39
2023-01-25T06:39:05.401Z,20.38
2023-01-25T06:41:33.077Z,20.40
2023-01-25T06:44:00.729Z,20.39
2023-01-25T06:46:29.924Z,20.40
2023-01-25T06:48:57.690Z,20.39
2023-01-25T06:51:25.397Z,20.41
2023-01-25T06:53:53.056Z,20.40
2023-01-25T06:56:21.647Z,20.40
2023-01-25T06:58:49.560Z,20.41
2023-01-25T07:01:19.813Z,20.41
2023-01-25T07:03:50.393Z,20.41
2023-01-25T07:06:18.166Z,20.42
2023-01-25T07:08:46.072Z,20.44
2023-01-25T07:11:14.173Z,20.45
2023-01-25T07:13:41.955Z,20.45
2023-01-25T07:16:10.283Z,20.46
2023-01-25T07:18:38.188Z,20.46
2023-01-25T07:21:07.670Z,20.46
2023-01-25T07:23:37.892Z,20.47
2023-01-25T07:26:05.715Z,20.48
2023-01-25T07:28:33.413Z,20.48
2023-01-25T07:31:05.967Z,20.47
2023-01-25T07:33:33.856Z,20.48
2023-01-25T07:36:01.741Z,20.48
2023-01-25T07:38:30.780Z,20.49
2023-01-25T07:40:58.424Z,20.48
2023-01-25T07:43:26.361Z,20.48
2023-01-25T07:45:54.016Z,20.50
2023-01-25T07:48:21.891Z,20.49
2023-01-25T07:50:50.109Z,20.49
2023-01-25T07:53:17.891Z,20.49
2023-01-25T07:55:46.885Z,20.48
2023-01-25T07:58:15.181Z,20.49
2023-01-25T08:00:42.856Z,20.50
2023-01-25T08:03:10.573Z,20.50
2023-01-25T08:05:39.507Z,20.50
2023-01-25T08:08:07.899Z,20.50
2023-01-25T08:10:35.548Z,20.50
2023-01-25T08:13:04.536Z,20.50
2023-01-25T08:15:32.729Z,20.51
2023-01-25T08:18:00.628Z,20.52
2023-01-25T08:20:28.321Z,20.52
2023-01-25T08:22:56.012Z,20.52
2023-01-25T08:25:23.713Z,20.53
2023-01-25T08:27:52.380Z,20.53
2023-01-25T08:30:21.692Z,20.53
2023-01-25T08:32:49.697Z,20.53
2023-01-25T08:35:17.499Z,20.53
2023-01-25T08:37:45.147Z,20.52
2023-01-25T08:40:14.938Z,20.53
2023-01-25T08:42:43.544Z,20.53
2023-01-25T08:45:12.182Z,20.53
2023-01-25T08:47:41.341Z,20.54
2023-01-25T08:50:09.854Z,20.53
2023-01-25T08:52:37.882Z,20.53
2023-01-25T08:55:05.812Z,20.54
2023-01-25T08:57:34.157Z,20.53
2023-01-25T09:00:01.883Z,20.54
2023-01-25T09:02:31.212Z,20.54
2023-01-25T09:05:00.215Z,20.52
2023-01-25T09:07:28.084Z,20.50
2023-01-25T09:09:55.798Z,20.50
2023-01-25T09:12:23.944Z,20.49
2023-01-25T09:14:51.636Z,20.49
2023-01-25T09:17:19.416Z,20.48
2023-01-25T09:19:48.832Z,20.48
2023-01-25T09:22:17.976Z,20.48
2023-01-25T09:24:46.755Z,20.48
2023-01-25T09:27:14.490Z,20.49
2023-01-25T09:29:49.592Z,20.50
2023-01-25T09:32:27.992Z,20.48
2023-01-25T09:34:56.153Z,20.49
2023-01-25T09:37:25.330Z,20.47
2023-01-25T09:39:53.376Z,20.46
2023-01-25T09:42:45.729Z,20.46
2023-01-25T09:45:17.190Z,20.45
2023-01-25T09:47:46.667Z,20.46
2023-01-25T09:50:21.719Z,20.45
2023-01-25T09:52:58.459Z,20.42
2023-01-25T09:55:27.172Z,20.41
2023-01-25T09:57:56.808Z,20.42
2023-01-25T10:00:25.616Z,20.42
2023-01-25T10:02:54.793Z,20.41
2023-01-25T10:05:23.108Z,20.41
2023-01-25T10:08:01.301Z,20.40
2023-01-25T10:10:31.474Z,20.40
2023-01-25T10:13:00.510Z,20.39
2023-01-25T10:15:29.551Z,20.39
2023-01-25T10:18:00.132Z,20.39
2023-01-25T10:20:29.697Z,20.37
2023-01-25T10:23:06.466Z,20.39
2023-01-25T10:25:36.149Z,20.40
2023-01-25T10:28:22.213Z,20.39
2023-01-25T10:30:51.254Z,20.41
2023-01-25T10:33:20.107Z,20.41
2023-01-25T10:35:48.394Z,20.41
2023-01-25T10:38:18.931Z,20.42
2023-01-25T10:40:47.480Z,20.42
2023-01-25T10:43:17.182Z,20.42
2023-01-25T10:45:46.120Z,20.40
2023-01-25T10:48:15.090Z,20.40
2023-01-25T10:50:47.172Z,20.40
2023-01-25T10:53:32.524Z,20.39
2023-01-25T10:56:07.518Z,20.38
2023-01-25T10:58:35.844Z,20.37
2023-01-25T11:01:04.932Z,20.38
2023-01-25T11:03:36.131Z,20.37
2023-01-25T11:06:04.535Z,20.38
2023-01-25T11:08:34.036Z,20.37
2023-01-25T11:11:02.470Z,20.35
2023-01-25T11:13:33.462Z,20.36
2023-01-25T11:16:13.014Z,20.36
2023-01-25T11:18:40.667Z,20.35
2023-01-25T11:21:09.442Z,20.36
2023-01-25T11:23:37.214Z,20.36
2023-01-25T11:26:13.054Z,20.35
2023-01-25T11:28:42.294Z,20.35
2023-01-25T11:31:11.481Z,20.35
2023-01-25T11:33:39.281Z,20.36
2023-01-25T11:36:11.276Z,20.37
2023-01-25T11:38:39.091Z,20.37
2023-01-25T11:41:07.980Z,20.37
2023-01-25T11:43:41.998Z,20.39
2023-01-25T11:46:20.987Z,20.39
2023-01-25T11:49:04.207Z,20.38
2023-01-25T11:51:33.518Z,20.38
2023-01-25T11:54:06.153Z,20.37
2023-01-25T11:56:36.520Z,20.37
2023-01-25T11:59:11.598Z,20.36
2023-01-25T12:01:43.477Z,20.36
2023-01-25T12:04:20.227Z,20.35
2023-01-25T12:06:54.402Z,20.34
2023-01-25T12:09:30.136Z,20.35
2023-01-25T12:12:01.079Z,20.35
2023-01-25T12:14:32.581Z,20.34
2023-01-25T12:17:08.048Z,20.34
2023-01-25T12:19:40.703Z,20.34
2023-01-25T12:22:21.077Z,20.32
2023-01-25T12:24:52.694Z,20.32
2023-01-25T12:27:25.822Z,20.34
2023-01-25T12:29:56.350Z,20.32
2023-01-25T12:32:25.764Z,20.32
2023-01-25T12:34:56.431Z,20.31
2023-01-25T12:37:25.941Z,20.31
2023-01-25T12:39:55.567Z,20.33
2023-01-25T12:42:23.905Z,20.34
2023-01-25T12:44:54.312Z,20.35
2023-01-25T12:47:23.252Z,20.35
2023-01-25T12:49:53.173Z,20.36
2023-01-25T12:52:22.543Z,20.35
2023-01-25T12:54:50.208Z,20.36
2023-01-25T12:57:20.879Z,20.35
2023-01-25T12:59:51.478Z,20.35
2023-01-25T13:02:24.155Z,20.33
2023-01-25T13:04:56.411Z,20.33
2023-01-25T13:07:26.484Z,20.33
2023-01-25T13:09:54.830Z,20.32
2023-01-25T13:12:25.294Z,20.33
2023-01-25T13:14:53.122Z,20.31
2023-01-25T13:17:25.481Z,20.33
2023-01-25T13:19:53.542Z,20.31
2023-01-25T13:22:43.035Z,20.32
2023-01-25T13:25:20.887Z,20.30
2023-01-25T13:27:49.388Z,20.30
2023-01-25T13:30:32.735Z,20.29
2023-01-25T13:33:01.842Z,20.29
2023-01-25T13:35:32.939Z,20.30
2023-01-25T13:38:02.847Z,20.29
2023-01-25T13:40:33.370Z,20.29
2023-01-25T13:43:04.454Z,20.29
2023-01-25T13:45:32.952Z,20.31
2023-01-25T13:48:01.140Z,20.31
2023-01-25T13:50:33.566Z,20.33
2023-01-25T13:53:01.992Z,20.33
2023-01-25T13:55:30.726Z,20.32
2023-01-25T13:58:11.141Z,20.33
2023-01-25T14:00:39.773Z,20.33
2023-01-25T14:03:07.763Z,20.33
2023-01-25T14:05:36.180Z,20.33
2023-01-25T14:08:04.047Z,20.31
2023-01-25T14:10:32.386Z,20.31
2023-01-25T14:13:00.505Z,20.30
2023-01-25T14:15:30.953Z,20.29
2023-01-25T14:18:14.502Z,20.29
2023-01-25T14:20:43.025Z,20.29
2023-01-25T14:23:26.381Z,20.28
2023-01-25T14:25:55.649Z,20.28
2023-01-25T14:28:23.315Z,20.29
2023-01-25T14:30:53.873Z,20.27
2023-01-25T14:33:22.565Z,20.28
2023-01-25T14:35:57.420Z,20.27
2023-01-25T14:38:29.160Z,20.26
2023-01-25T14:40:58.621Z,20.26
2023-01-25T14:43:27.780Z,20.26
2023-01-25T14:45:57.679Z,20.26
2023-01-25T14:48:35.360Z,20.26
2023-01-25T14:51:03.995Z,20.27
2023-01-25T14:53:32.382Z,20.28
2023-01-25T14:56:00.061Z,20.29
2023-01-25T14:58:30.234Z,20.30
2023-01-25T15:01:00.012Z,20.30
2023-01-25T15:03:28.659Z,20.30
2023-01-25T15:05:56.338Z,20.30
2023-01-25T15:08:30.024Z,20.30
2023-01-25T15:10:57.951Z,20.29
2023-01-25T15:13:26.985Z,20.28
2023-01-25T15:15:55.408Z,20.27
2023-01-25T15:18:44.236Z,20.28
2023-01-25T15:21:11.978Z,20.27
2023-01-25T15:23:41.750Z,20.26
2023-01-25T15:26:13.678Z,20.26
2023-01-25T15:28:42.051Z,20.26
2023-01-25T15:31:11.815Z,20.26
2023-01-25T15:33:40.199Z,20.25
2023-01-25T15:36:09.961Z,20.24
2023-01-25T15:38:38.396Z,20.25
2023-01-25T15:41:06.190Z,20.23
2023-01-25T15:43:35.705Z,20.23
2023-01-25T15:46:04.197Z,20.24
2023-01-25T15:48:32.217Z,20.23
2023-01-25T15:51:00.714Z,20.24
2023-01-25T15:53:29.737Z,20.23
2023-01-25T15:56:00.310Z,20.24
2023-01-25T15:58:28.784Z,20.23
2023-01-25T16:00:58.681Z,20.22
2023-01-25T16:03:26.344Z,20.22
2023-01-25T16:05:56.869Z,20.23
2023-01-25T16:08:25.281Z,20.22
2023-01-25T16:10:55.280Z,20.22
2023-01-25T16:13:24.097Z,20.22
2023-01-25T16:15:53.694Z,20.21
2023-01-25T16:18:21.447Z,20.23
2023-01-25T16:20:49.227Z,20.22
2023-01-25T16:23:17.712Z,20.22
2023-01-25T16:25:45.436Z,20.23
2023-01-25T16:28:17.685Z,20.22
2023-01-25T16:30:45.678Z,20.21
2023-01-25T16:33:13.556Z,20.21
2023-01-25T16:35:42.130Z,20.22
2023-01-25T16:38:11.956Z,20.21
2023-01-25T16:40:41.862Z,20.21
2023-01-25T16:43:10.413Z,20.21
2023-01-25T16:45:39.950Z,20.20
2023-01-25T16:48:08.719Z,20.20
2023-01-25T16:50:36.590Z,20.21
2023-01-25T16:53:05.805Z,20.21
2023-01-25T16:55:33.503Z,20.23
2023-01-25T16:58:01.151Z,20.24
2023-01-25T17:00:30.232Z,20.25
2023-01-25T17:02:59.893Z,20.26
2023-01-25T17:05:30.367Z,20.27
2023-01-25T17:07:58.107Z,20.29
2023-01-25T17:10:26.618Z,20.30
2023-01-25T17:12:54.281Z,20.32
2023-01-25T17:15:22.751Z,20.33
2023-01-25T17:17:51.144Z,20.34
2023-01-25T17:20:21.525Z,20.35
2023-01-25T17:22:55.722Z,20.36
2023-01-25T17:25:25.721Z,20.36
2023-01-25T17:27:54.154Z,20.36
2023-01-25T17:30:21.928Z,20.38
2023-01-25T17:32:50.497Z,20.37
2023-01-25T17:35:18.205Z,20.38
2023-01-25T17:37:47.348Z,20.38
2023-01-25T17:40:15.999Z,20.38
2023-01-25T17:42:43.732Z,20.39
2023-01-25T17:45:13.283Z,20.39
2023-01-25T17:47:41.863Z,20.39
2023-01-25T17:50:10.619Z,20.39
2023-01-25T17:52:39.358Z,20.39
2023-01-25T17:55:09.230Z,20.39
2023-01-25T17:57:38.872Z,20.39
2023-01-25T18:00:07.337Z,20.39
2023-01-25T18:02:35.091Z,20.40
2023-01-25T18:05:03.954Z,20.40
2023-01-25T18:07:31.628Z,20.40
2023-01-25T18:10:00.456Z,20.41
2023-01-25T18:12:29.503Z,20.41
2023-01-25T18:14:58.836Z,20.42
2023-01-25T18:17:26.675Z,20.44
2023-01-25T18:19:54.371Z,20.43
2023-01-25T18:22:27.792Z,20.44
2023-01-25T18:24:55.472Z,20.44
2023-01-25T18:27:24.306Z,20.43
2023-01-25T18:29:56.108Z,20.44
2023-01-25T18:32:23.920Z,20.45
2023-01-25T18:34:52.427Z,20.46
2023-01-25T18:37:20.968Z,20.46
2023-01-25T18:39:49.949Z,20.46
2023-01-25T18:42:17.649Z,20.45
2023-01-25T18:44:49.231Z,20.46
2023-01-25T18:47:18.587Z,20.45
2023-01-25T18:49:46.478Z,20.45
2023-01-25T18:52:15.544Z,20.45
2023-01-25T18:54:43.239Z,20.46
2023-01-25T18:57:15.631Z,20.47
2023-01-25T18:59:43.317Z,20.47
2023-01-25T19:02:12.134Z,20.48
2023-01-25T19:04:41.191Z,20.49
2023-01-25T19:07:08.874Z,20.50
2023-01-25T19:09:37.429Z,20.51
2023-01-25T19:12:05.360Z,20.52
2023-01-25T19:14:33.908Z,20.52
2023-01-25T19:17:01.612Z,20.54
2023-01-25T19:19:32.948Z,20.54
2023-01-25T19:22:02.043Z,20.55
2023-01-25T19:24:29.730Z,20.56
2023-01-25T19:27:00.423Z,20.55
2023-01-25T19:29:28.102Z,20.56
2023-01-25T19:31:56.645Z,20.56
2023-01-25T19:34:24.406Z,20.55
2023-01-25T19:36:53.852Z,20.54
2023-01-25T19:39:23.878Z,20.54
2023-01-25T19:41:57.387Z,20.55
2023-01-25T19:44:31.627Z,20.54
2023-01-25T19:47:00.632Z,20.55
2023-01-25T19:49:29.550Z,20.55
2023-01-25T19:51:59.953Z,20.55
2023-01-25T19:54:30.342Z,20.53
2023-01-25T19:57:01.078Z,20.54
2023-01-25T19:59:29.153Z,20.54
2023-01-25T20:01:58.170Z,20.55
2023-01-25T20:04:28.996Z,20.54
2023-01-25T20:06:57.934Z,20.55
2023-01-25T20:09:29.240Z,20.54
2023-01-25T20:11:58.661Z,20.56
2023-01-25T20:14:26.318Z,20.56
2023-01-25T20:16:54.955Z,20.56
2023-01-25T20:19:22.675Z,20.58
2023-01-25T20:21:51.277Z,20.57
2023-01-25T20:24:19.010Z,20.58
2023-01-25T20:26:49.010Z,20.61
2023-01-25T20:29:18.128Z,20.60
2023-01-25T20:31:47.159Z,20.60
2023-01-25T20:34:15.218Z,20.61
2023-01-25T20:36:43.695Z,20.61
2023-01-25T20:39:12.241Z,20.61
2023-01-25T20:41:40.670Z,20.63
2023-01-25T20:44:12.164Z,20.63
2023-01-25T20:46:42.492Z,20.63
2023-01-25T20:49:11.125Z,20.63
2023-01-25T20:51:39.907Z,20.62
2023-01-25T20:54:07.540Z,20.62
2023-01-25T20:56:36.825Z,20.62
2023-01-25T20:59:04.567Z,20.62
2023-01-25T21:01:38.145Z,20.62
2023-01-25T21:04:07.967Z,20.62
2023-01-25T21:06:37.035Z,20.63
2023-01-25T21:09:04.838Z,20.64
2023-01-25T21:11:32.535Z,20.63
2023-01-25T21:14:01.084Z,20.63
2023-01-25T21:16:28.892Z,20.64
2023-01-25T21:18:58.401Z,20.64
2023-01-25T21:21:28.116Z,20.64
2023-01-25T21:23:57.023Z,20.64
2023-01-25T21:26:26.000Z,20.65
2023-01-25T21:28:54.618Z,20.67
2023-01-25T21:31:23.994Z,20.67
2023-01-25T21:33:51.650Z,20.66
2023-01-25T21:36:20.685Z,20.67
2023-01-25T21:38:50.132Z,20.67
2023-01-25T21:41:19.878Z,20.68
2023-01-25T21:44:07.008Z,20.67
2023-01-25T21:46:36.572Z,20.68
2023-01-25T21:49:28.854Z,20.69
2023-01-25T21:51:56.987Z,20.68
2023-01-25T21:54:27.894Z,20.69
2023-01-25T21:56:56.092Z,20.68
2023-01-25T21:59:25.136Z,20.68
2023-01-25T22:01:52.977Z,20.67
2023-01-25T22:04:21.789Z,20.67
2023-01-25T22:06:50.572Z,20.65
2023-01-25T22:09:25.275Z,20.63
2023-01-25T22:11:54.464Z,20.64
2023-01-25T22:14:23.346Z,20.62
2023-01-25T22:16:51.902Z,20.62
2023-01-25T22:19:20.394Z,20.60
2023-01-25T22:21:48.033Z,20.60
2023-01-25T22:24:15.849Z,20.58
2023-01-25T22:26:49.128Z,20.58
2023-01-25T22:29:18.260Z,20.59
2023-01-25T22:31:47.094Z,20.58
2023-01-25T22:34:14.711Z,20.57
2023-01-25T22:36:43.139Z,20.58
2023-01-25T22:39:10.877Z,20.58
2023-01-25T22:41:39.312Z,20.57
2023-01-25T22:44:07.739Z,20.57
2023-01-25T22:46:38.319Z,20.57
2023-01-25T22:49:06.079Z,20.57
2023-01-25T22:51:34.520Z,20.57
2023-01-25T22:54:02.233Z,20.57
2023-01-25T22:56:31.767Z,20.56
2023-01-25T22:59:00.914Z,20.57
2023-01-25T23:01:29.348Z,20.56
2023-01-25T23:03:59.094Z,20.55
2023-01-25T23:06:27.223Z,20.54
2023-01-25T23:08:56.043Z,20.54
2023-01-25T23:11:24.268Z,20.52
2023-01-25T23:14:06.834Z,20.51
2023-01-25T23:16:34.663Z,20.50
2023-01-25T23:19:03.103Z,20.51
2023-01-25T23:21:31.560Z,20.49
2023-01-25T23:24:00.717Z,20.50
2023-01-25T23:26:30.101Z,20.48
2023-01-25T23:28:58.011Z,20.48
2023-01-25T23:31:26.241Z,20.48
2023-01-25T23:33:54.795Z,20.48
2023-01-25T23:36:24.557Z,20.47
2023-01-25T23:38:52.292Z,20.46
2023-01-25T23:41:20.386Z,20.45
2023-01-25T23:43:48.370Z,20.46
2023-01-25T23:46:16.925Z,20.46
2023-01-25T23:48:45.007Z,20.47
2023-01-25T23:51:12.749Z,20.47
2023-01-25T23:53:41.784Z,20.47
2023-01-25T23:56:10.135Z,20.48
2023-01-25T23:58:38.025Z,20.47
